createdAt,value
2018-06-28T00:00:10.407Z,16.72
2018-06-28T00:01:10.405Z,16.66
2018-06-28T00:02:10.286Z,16.64
2018-06-28T00:03:10.287Z,16.66
2018-06-28T00:04:10.243Z,16.57
2018-06-28T00:05:10.168Z,16.58
2018-06-28T00:06:10.164Z,16.55
2018-06-28T00:07:10.123Z,16.58
2018-06-28T00:08:10.046Z,16.62
2018-06-28T00:09:10.043Z,16.59
2018-06-28T00:10:09.923Z,16.61
2018-06-28T00:11:09.923Z,16.58
2018-06-28T00:12:09.925Z,16.55
2018-06-28T00:13:09.802Z,16.59
2018-06-28T00:14:09.805Z,16.59
2018-06-28T00:15:09.805Z,16.54
2018-06-28T00:16:09.682Z,16.49
2018-06-28T00:17:09.682Z,16.55
2018-06-28T00:18:09.681Z,16.54
2018-06-28T00:19:09.561Z,16.47
2018-06-28T00:20:09.564Z,16.50
2018-06-28T00:21:09.561Z,16.44
2018-06-28T00:22:09.443Z,16.51
2018-06-28T00:23:09.441Z,16.44
2018-06-28T00:24:09.440Z,16.43
2018-06-28T00:25:09.322Z,16.43
2018-06-28T00:26:09.322Z,16.43
2018-06-28T00:27:09.320Z,16.37
2018-06-28T00:28:09.198Z,16.37
2018-06-28T00:29:09.202Z,16.34
2018-06-28T00:30:09.197Z,16.28
2018-06-28T00:31:09.077Z,16.34
2018-06-28T00:32:09.080Z,16.24
2018-06-28T00:33:09.082Z,16.39
2018-06-28T00:34:08.966Z,16.36
2018-06-28T00:35:08.957Z,16.29
2018-06-28T00:36:08.915Z,16.21
2018-06-28T00:37:08.838Z,16.24
2018-06-28T00:38:08.835Z,16.29
2018-06-28T00:39:08.716Z,16.34
2018-06-28T00:40:08.719Z,16.25
2018-06-28T00:41:08.716Z,16.13
2018-06-28T00:42:08.607Z,16.10
2018-06-28T00:43:08.597Z,16.10
2018-06-28T00:44:08.597Z,16.28
2018-06-28T00:45:08.475Z,16.18
2018-06-28T00:46:08.475Z,16.18
2018-06-28T00:47:08.481Z,16.21
2018-06-28T00:48:08.357Z,16.13
2018-06-28T00:49:08.355Z,16.09
2018-06-28T00:50:08.354Z,16.13
2018-06-28T00:51:08.233Z,16.18
2018-06-28T00:52:08.234Z,16.08
2018-06-28T00:53:08.237Z,16.24
2018-06-28T00:54:08.113Z,16.25
2018-06-28T00:55:08.113Z,16.16
2018-06-28T00:56:08.115Z,16.24
2018-06-28T00:57:07.992Z,16.16
2018-06-28T00:58:07.991Z,16.24
2018-06-28T00:59:07.997Z,16.18
2018-06-28T01:00:07.872Z,16.13
2018-06-28T01:01:07.873Z,16.21
2018-06-28T01:02:07.872Z,16.28
2018-06-28T01:03:07.754Z,16.18
2018-06-28T01:04:07.752Z,16.13
2018-06-28T01:05:07.708Z,16.18
2018-06-28T01:06:07.635Z,16.12
2018-06-28T01:07:07.635Z,16.17
2018-06-28T01:08:07.510Z,16.18
2018-06-28T01:09:07.513Z,16.21
2018-06-28T01:10:07.511Z,16.17
2018-06-28T01:11:07.390Z,16.24
2018-06-28T01:12:07.391Z,16.09
2018-06-28T01:13:07.390Z,16.12
2018-06-28T01:14:07.272Z,16.13
2018-06-28T01:15:07.271Z,16.10
2018-06-28T01:16:07.269Z,16.17
2018-06-28T01:17:07.148Z,16.13
2018-06-28T01:18:07.149Z,16.25
2018-06-28T01:19:07.155Z,16.24
2018-06-28T01:20:07.029Z,16.25
2018-06-28T01:21:07.032Z,16.17
2018-06-28T01:22:07.027Z,16.17
2018-06-28T01:23:06.909Z,16.21
2018-06-28T01:24:06.908Z,16.12
2018-06-28T01:25:06.911Z,16.16
2018-06-28T01:26:06.789Z,16.24
2018-06-28T01:27:06.785Z,16.17
2018-06-28T01:28:06.788Z,16.13
2018-06-28T01:29:06.669Z,16.25
2018-06-28T01:30:06.668Z,16.10
2018-06-28T01:31:06.627Z,16.16
2018-06-28T01:32:06.546Z,16.28
2018-06-28T01:33:06.547Z,16.21
2018-06-28T01:34:06.425Z,16.24
2018-06-28T01:35:06.425Z,16.22
2018-06-28T01:36:06.424Z,16.22
2018-06-28T01:37:06.305Z,16.13
2018-06-28T01:38:06.305Z,16.18
2018-06-28T01:39:06.307Z,16.18
2018-06-28T01:40:06.192Z,16.22
2018-06-28T01:41:06.186Z,16.18
2018-06-28T01:42:06.192Z,16.18
2018-06-28T01:43:06.062Z,16.12
2018-06-28T01:44:06.063Z,16.16
2018-06-28T01:45:06.062Z,16.13
2018-06-28T01:46:05.948Z,16.22
2018-06-28T01:47:05.952Z,16.18
2018-06-28T01:48:05.946Z,16.25
2018-06-28T01:49:05.824Z,16.31
2018-06-28T01:50:05.819Z,16.26
2018-06-28T01:51:05.825Z,16.12
2018-06-28T01:52:05.700Z,16.18
2018-06-28T01:53:05.767Z,16.16
2018-06-28T01:54:05.713Z,16.17
2018-06-28T01:55:05.585Z,16.16
2018-06-28T01:56:05.584Z,16.25
2018-06-28T01:57:05.580Z,16.22
2018-06-28T01:58:05.458Z,16.21
2018-06-28T01:59:05.457Z,16.16
2018-06-28T02:00:05.417Z,16.18
2018-06-28T02:01:05.337Z,16.12
2018-06-28T02:02:05.337Z,16.16
2018-06-28T02:03:05.221Z,16.16
2018-06-28T02:04:05.220Z,16.17
2018-06-28T02:05:05.218Z,16.12
2018-06-28T02:06:05.098Z,16.16
2018-06-28T02:07:05.098Z,16.09
2018-06-28T02:08:05.096Z,16.13
2018-06-28T02:09:04.981Z,16.08
2018-06-28T02:10:05.057Z,16.12
2018-06-28T02:11:04.975Z,16.09
2018-06-28T02:12:04.866Z,16.13
2018-06-28T02:13:04.857Z,16.03
2018-06-28T02:14:04.934Z,16.05
2018-06-28T02:15:04.823Z,16.05
2018-06-28T02:16:04.735Z,16.02
2018-06-28T02:17:04.738Z,15.99
2018-06-28T02:18:04.618Z,16.02
2018-06-28T02:19:04.692Z,15.96
2018-06-28T02:20:04.697Z,16.05
2018-06-28T02:21:04.495Z,15.96
2018-06-28T02:22:04.495Z,16.02
2018-06-28T02:23:04.496Z,15.91
2018-06-28T02:24:04.371Z,15.98
2018-06-28T02:25:04.375Z,15.98
2018-06-28T02:26:04.340Z,15.92
2018-06-28T02:27:04.252Z,15.92
2018-06-28T02:28:04.251Z,15.94
2018-06-28T02:29:04.136Z,15.87
2018-06-28T02:30:04.130Z,15.94
2018-06-28T02:31:04.131Z,15.92
2018-06-28T02:32:04.011Z,15.98
2018-06-28T02:33:04.014Z,15.92
2018-06-28T02:34:04.019Z,15.96
2018-06-28T02:35:03.893Z,15.91
2018-06-28T02:36:03.892Z,15.94
2018-06-28T02:37:03.892Z,15.87
2018-06-28T02:38:03.772Z,15.91
2018-06-28T02:39:03.772Z,15.90
2018-06-28T02:40:03.771Z,15.83
2018-06-28T02:41:03.652Z,15.83
2018-06-28T02:42:03.648Z,15.85
2018-06-28T02:43:03.656Z,15.85
2018-06-28T02:44:03.530Z,15.81
2018-06-28T02:45:03.543Z,15.72
2018-06-28T02:46:03.533Z,15.76
2018-06-28T02:47:03.421Z,15.72
2018-06-28T02:48:03.408Z,15.76
2018-06-28T02:49:03.535Z,15.81
2018-06-28T02:50:03.286Z,15.76
2018-06-28T02:51:03.291Z,15.78
2018-06-28T02:52:03.245Z,15.67
2018-06-28T02:53:03.165Z,15.75
2018-06-28T02:54:03.166Z,15.73
2018-06-28T02:55:03.129Z,15.75
2018-06-28T02:56:03.051Z,15.70
2018-06-28T02:57:03.046Z,15.72
2018-06-28T02:58:02.936Z,15.66
2018-06-28T02:59:02.925Z,15.66
2018-06-28T03:00:02.925Z,15.70
2018-06-28T03:01:02.815Z,15.66
2018-06-28T03:02:02.811Z,15.62
2018-06-28T03:03:02.808Z,15.62
2018-06-28T03:04:02.684Z,15.60
2018-06-28T03:05:02.686Z,15.55
2018-06-28T03:06:02.695Z,15.62
2018-06-28T03:07:02.569Z,15.67
2018-06-28T03:08:02.582Z,15.63
2018-06-28T03:09:02.564Z,15.59
2018-06-28T03:10:02.446Z,15.65
2018-06-28T03:11:02.443Z,15.57
2018-06-28T03:12:02.402Z,15.52
2018-06-28T03:13:02.324Z,15.52
2018-06-28T03:14:02.323Z,15.55
2018-06-28T03:15:02.204Z,15.55
2018-06-28T03:16:02.211Z,15.54
2018-06-28T03:17:02.203Z,15.57
2018-06-28T03:18:02.159Z,15.54
2018-06-28T03:19:02.082Z,15.55
2018-06-28T03:20:02.082Z,15.57
2018-06-28T03:21:01.960Z,15.51
2018-06-28T03:22:02.041Z,15.54
2018-06-28T03:23:01.961Z,15.62
2018-06-28T03:24:01.850Z,15.47
2018-06-28T03:25:01.841Z,15.52
2018-06-28T03:26:01.842Z,15.57
2018-06-28T03:27:01.721Z,15.60
2018-06-28T03:28:01.797Z,15.48
2018-06-28T03:29:01.726Z,15.54
2018-06-28T03:30:01.598Z,15.54
2018-06-28T03:31:01.637Z,15.54
2018-06-28T03:32:01.602Z,15.51
2018-06-28T03:33:01.478Z,15.51
2018-06-28T03:34:01.479Z,15.47
2018-06-28T03:35:01.360Z,15.52
2018-06-28T03:36:01.442Z,15.52
2018-06-28T03:37:01.361Z,15.51
2018-06-28T03:38:01.408Z,15.50
2018-06-28T03:39:01.236Z,15.45
2018-06-28T03:40:01.236Z,15.55
2018-06-28T03:41:01.115Z,15.45
2018-06-28T03:42:01.118Z,15.55
2018-06-28T03:43:01.116Z,15.52
2018-06-28T03:44:00.996Z,15.52
2018-06-28T03:45:00.996Z,15.52
2018-06-28T03:46:01.072Z,15.45
2018-06-28T03:47:00.876Z,15.47
2018-06-28T03:48:00.880Z,15.55
2018-06-28T03:49:00.877Z,15.54
2018-06-28T03:50:00.757Z,15.45
2018-06-28T03:51:00.830Z,15.47
2018-06-28T03:52:00.753Z,15.52
2018-06-28T03:53:00.638Z,15.48
2018-06-28T03:54:00.710Z,15.45
2018-06-28T03:55:00.514Z,15.51
2018-06-28T03:56:00.516Z,15.45
2018-06-28T03:57:00.531Z,15.48
2018-06-28T03:58:00.393Z,15.52
2018-06-28T03:59:00.393Z,15.47
2018-06-28T04:00:00.391Z,15.44
2018-06-28T04:01:00.273Z,15.45
2018-06-28T04:02:00.270Z,15.51
2018-06-28T04:03:00.286Z,15.55
2018-06-28T04:04:00.150Z,15.54
2018-06-28T04:05:00.154Z,15.57
2018-06-28T04:06:00.232Z,15.57
2018-06-28T04:07:00.108Z,15.57
2018-06-28T04:08:00.032Z,15.57
2018-06-28T04:09:00.109Z,15.62
2018-06-28T04:09:59.912Z,15.62
2018-06-28T04:10:59.909Z,15.67
2018-06-28T04:11:59.911Z,15.62
2018-06-28T04:12:59.795Z,15.66
2018-06-28T04:13:59.787Z,15.69
2018-06-28T04:14:59.748Z,15.66
2018-06-28T04:15:59.684Z,15.76
2018-06-28T04:16:59.668Z,15.67
2018-06-28T04:17:59.551Z,15.66
2018-06-28T04:18:59.548Z,15.69
2018-06-28T04:19:59.552Z,15.80
2018-06-28T04:20:59.433Z,15.78
2018-06-28T04:21:59.430Z,15.76
2018-06-28T04:22:59.432Z,15.84
2018-06-28T04:23:59.307Z,15.92
2018-06-28T04:24:59.306Z,15.83
2018-06-28T04:25:59.306Z,15.90
2018-06-28T04:26:59.192Z,15.94
2018-06-28T04:27:59.188Z,15.92
2018-06-28T04:28:59.186Z,15.91
2018-06-28T04:29:59.065Z,15.98
2018-06-28T04:30:59.065Z,15.99
2018-06-28T04:31:59.075Z,15.99
2018-06-28T04:32:58.946Z,16.02
2018-06-28T04:33:58.948Z,16.03
2018-06-28T04:34:58.906Z,16.10
2018-06-28T04:35:58.823Z,16.09
2018-06-28T04:36:58.828Z,16.12
2018-06-28T04:37:58.781Z,16.21
2018-06-28T04:38:58.704Z,16.13
2018-06-28T04:39:58.701Z,16.17
2018-06-28T04:40:58.621Z,16.28
2018-06-28T04:41:58.583Z,16.16
2018-06-28T04:42:58.582Z,16.22
2018-06-28T04:43:58.463Z,16.28
2018-06-28T04:44:58.462Z,16.24
2018-06-28T04:45:58.463Z,16.26
2018-06-28T04:46:58.342Z,16.26
2018-06-28T04:47:58.341Z,16.31
2018-06-28T04:48:58.343Z,16.32
2018-06-28T04:49:58.300Z,16.34
2018-06-28T04:50:58.221Z,16.40
2018-06-28T04:51:58.221Z,16.47
2018-06-28T04:52:58.101Z,16.41
2018-06-28T04:53:58.105Z,16.50
2018-06-28T04:54:58.098Z,16.50
2018-06-28T04:55:57.995Z,16.44
2018-06-28T04:56:57.979Z,16.57
2018-06-28T04:57:57.937Z,16.51
2018-06-28T04:58:57.871Z,16.61
2018-06-28T04:59:57.866Z,16.66
2018-06-28T05:00:57.740Z,16.62
2018-06-28T05:01:57.743Z,16.72
2018-06-28T05:02:57.741Z,16.74
2018-06-28T05:03:57.623Z,16.79
2018-06-28T05:04:57.697Z,16.72
2018-06-28T05:05:57.619Z,16.86
2018-06-28T05:06:57.537Z,16.84
2018-06-28T05:07:57.497Z,16.79
2018-06-28T05:08:57.502Z,16.91
2018-06-28T05:09:57.377Z,16.87
2018-06-28T05:10:57.375Z,16.87
2018-06-28T05:11:57.377Z,16.87
2018-06-28T05:12:57.254Z,16.92
2018-06-28T05:13:57.260Z,16.92
2018-06-28T05:14:57.261Z,17.02
2018-06-28T05:15:57.140Z,16.97
2018-06-28T05:16:57.134Z,16.97
2018-06-28T05:17:57.140Z,17.16
2018-06-28T05:18:57.015Z,17.09
2018-06-28T05:19:57.015Z,17.09
2018-06-28T05:20:57.012Z,17.17
2018-06-28T05:21:56.898Z,17.13
2018-06-28T05:22:56.893Z,17.24
2018-06-28T05:23:56.891Z,17.27
2018-06-28T05:24:56.776Z,17.28
2018-06-28T05:25:56.774Z,17.28
2018-06-28T05:26:56.730Z,17.27
2018-06-28T05:27:56.652Z,17.32
2018-06-28T05:28:56.656Z,17.32
2018-06-28T05:29:56.611Z,17.38
2018-06-28T05:30:56.532Z,17.24
2018-06-28T05:31:56.531Z,17.38
2018-06-28T05:32:56.412Z,17.34
2018-06-28T05:33:56.410Z,17.52
2018-06-28T05:34:56.484Z,17.46
2018-06-28T05:35:56.291Z,17.53
2018-06-28T05:36:56.288Z,17.52
2018-06-28T05:37:56.292Z,17.56
2018-06-28T05:38:56.169Z,17.53
2018-06-28T05:39:56.170Z,17.53
2018-06-28T05:40:56.170Z,17.59
2018-06-28T05:41:56.050Z,17.59
2018-06-28T05:42:56.050Z,17.69
2018-06-28T05:43:56.051Z,17.72
2018-06-28T05:44:55.929Z,17.71
2018-06-28T05:45:55.928Z,17.75
2018-06-28T05:46:55.930Z,17.80
2018-06-28T05:47:55.809Z,17.82
2018-06-28T05:48:55.807Z,17.78
2018-06-28T05:49:55.805Z,17.87
2018-06-28T05:50:55.687Z,17.88
2018-06-28T05:51:55.686Z,17.95
2018-06-28T05:52:55.687Z,17.93
2018-06-28T05:53:55.567Z,17.93
2018-06-28T05:54:55.574Z,17.95
2018-06-28T05:55:55.526Z,17.97
2018-06-28T05:56:55.449Z,18.08
2018-06-28T05:57:55.446Z,18.02
2018-06-28T05:58:55.403Z,18.00
2018-06-28T05:59:55.327Z,18.19
2018-06-28T06:00:55.323Z,18.15
2018-06-28T06:01:55.209Z,18.11
2018-06-28T06:02:55.205Z,18.18
2018-06-28T06:03:55.204Z,18.18
2018-06-28T06:04:55.088Z,18.18
2018-06-28T06:05:55.087Z,18.30
2018-06-28T06:06:55.083Z,18.28
2018-06-28T06:07:54.969Z,18.41
2018-06-28T06:08:54.965Z,18.36
2018-06-28T06:09:54.964Z,18.36
2018-06-28T06:10:54.843Z,18.42
2018-06-28T06:11:54.843Z,18.45
2018-06-28T06:12:54.844Z,18.36
2018-06-28T06:13:54.722Z,18.51
2018-06-28T06:14:54.721Z,18.48
2018-06-28T06:15:54.722Z,18.51
2018-06-28T06:16:54.602Z,18.57
2018-06-28T06:17:54.601Z,18.51
2018-06-28T06:18:54.603Z,18.53
2018-06-28T06:19:54.484Z,18.66
2018-06-28T06:20:54.482Z,18.64
2018-06-28T06:21:54.489Z,18.70
2018-06-28T06:22:54.364Z,18.68
2018-06-28T06:23:54.362Z,18.79
2018-06-28T06:24:54.360Z,18.82
2018-06-28T06:25:54.240Z,18.85
2018-06-28T06:26:54.239Z,18.79
2018-06-28T06:27:54.239Z,18.85
2018-06-28T06:28:54.122Z,18.98
2018-06-28T06:29:54.124Z,19.04
2018-06-28T06:30:54.118Z,19.08
2018-06-28T06:31:53.997Z,19.08
2018-06-28T06:32:53.999Z,19.19
2018-06-28T06:33:53.998Z,19.20
2018-06-28T06:34:53.880Z,19.29
2018-06-28T06:35:53.885Z,19.23
2018-06-28T06:36:53.877Z,19.29
2018-06-28T06:37:53.760Z,19.34
2018-06-28T06:38:53.757Z,19.45
2018-06-28T06:39:53.758Z,19.48
2018-06-28T06:40:53.640Z,19.45
2018-06-28T06:41:53.636Z,19.56
2018-06-28T06:42:53.637Z,19.59
2018-06-28T06:43:53.515Z,19.62
2018-06-28T06:44:53.516Z,19.70
2018-06-28T06:45:53.515Z,19.74
2018-06-28T06:46:53.397Z,19.78
2018-06-28T06:47:53.395Z,19.75
2018-06-28T06:48:53.395Z,19.84
2018-06-28T06:49:53.277Z,19.90
2018-06-28T06:50:53.275Z,19.93
2018-06-28T06:51:53.273Z,20.00
2018-06-28T06:52:53.154Z,20.00
2018-06-28T06:53:53.154Z,20.11
2018-06-28T06:54:53.153Z,20.12
2018-06-28T06:55:53.217Z,20.22
2018-06-28T06:56:53.034Z,20.27
2018-06-28T06:57:53.034Z,20.26
2018-06-28T06:58:52.912Z,20.32
2018-06-28T06:59:52.911Z,20.34
2018-06-28T07:00:52.913Z,20.39
2018-06-28T07:01:52.792Z,20.39
2018-06-28T07:02:52.791Z,20.49
2018-06-28T07:03:52.793Z,20.50
2018-06-28T07:04:52.672Z,20.56
2018-06-28T07:05:52.670Z,20.56
2018-06-28T07:06:52.671Z,20.71
2018-06-28T07:07:52.550Z,20.70
2018-06-28T07:08:52.549Z,20.78
2018-06-28T07:09:52.549Z,20.73
2018-06-28T07:10:52.433Z,20.89
2018-06-28T07:11:52.432Z,20.95
2018-06-28T07:12:52.428Z,21.00
2018-06-28T07:13:52.309Z,21.13
2018-06-28T07:14:52.309Z,21.13
2018-06-28T07:15:52.365Z,21.20
2018-06-28T07:16:52.190Z,21.29
2018-06-28T07:17:52.191Z,21.26
2018-06-28T07:18:52.188Z,21.32
2018-06-28T07:19:52.069Z,21.30
2018-06-28T07:20:52.067Z,21.37
2018-06-28T07:21:52.111Z,21.47
2018-06-28T07:22:51.976Z,21.54
2018-06-28T07:23:51.948Z,21.65
2018-06-28T07:24:51.947Z,21.63
2018-06-28T07:25:51.825Z,21.62
2018-06-28T07:26:51.824Z,21.68
2018-06-28T07:27:51.827Z,21.78
2018-06-28T07:28:51.706Z,21.77
2018-06-28T07:29:51.704Z,21.84
2018-06-28T07:30:51.704Z,21.94
2018-06-28T07:31:51.586Z,22.01
2018-06-28T07:32:51.582Z,21.92
2018-06-28T07:33:51.589Z,21.97
2018-06-28T07:34:51.464Z,22.19
2018-06-28T07:35:51.463Z,22.18
2018-06-28T07:36:51.463Z,22.26
2018-06-28T07:37:51.365Z,22.28
2018-06-28T07:38:51.344Z,22.31
2018-06-28T07:39:51.341Z,22.38
2018-06-28T07:40:51.224Z,22.40
2018-06-28T07:41:51.221Z,22.49
2018-06-28T07:42:51.225Z,22.53
2018-06-28T07:43:51.103Z,22.51
2018-06-28T07:44:51.103Z,22.61
2018-06-28T07:45:51.105Z,22.73
2018-06-28T07:46:51.059Z,22.65
2018-06-28T07:47:50.979Z,22.76
2018-06-28T07:48:50.980Z,22.83
2018-06-28T07:49:50.938Z,22.83
2018-06-28T07:50:50.860Z,22.89
2018-06-28T07:51:50.861Z,22.88
2018-06-28T07:52:50.860Z,22.98
2018-06-28T07:53:50.739Z,23.01
2018-06-28T07:54:50.740Z,23.04
2018-06-28T07:55:50.740Z,23.13
2018-06-28T07:56:50.619Z,23.17
2018-06-28T07:57:50.617Z,23.23
2018-06-28T07:58:50.624Z,23.21
2018-06-28T07:59:50.496Z,23.33
2018-06-28T08:00:50.499Z,23.40
2018-06-28T08:01:50.496Z,23.45
2018-06-28T08:02:50.378Z,23.51
2018-06-28T08:03:50.383Z,23.62
2018-06-28T08:04:50.375Z,23.63
2018-06-28T08:05:50.256Z,23.69
2018-06-28T08:06:50.260Z,23.64
2018-06-28T08:07:50.255Z,23.91
2018-06-28T08:08:50.138Z,23.86
2018-06-28T08:09:50.152Z,23.92
2018-06-28T08:10:50.135Z,23.99
2018-06-28T08:11:50.018Z,24.13
2018-06-28T08:12:50.015Z,24.22
2018-06-28T08:13:50.014Z,24.29
2018-06-28T08:14:49.971Z,24.38
2018-06-28T08:15:49.894Z,24.44
2018-06-28T08:16:49.898Z,24.58
2018-06-28T08:17:49.790Z,24.61
2018-06-28T08:18:49.771Z,24.71
2018-06-28T08:19:49.708Z,24.78
2018-06-28T08:20:49.670Z,24.84
2018-06-28T08:21:49.630Z,24.96
2018-06-28T08:22:49.593Z,25.06
2018-06-28T08:23:49.554Z,25.07
2018-06-28T08:24:49.516Z,25.24
2018-06-28T08:25:49.479Z,25.30
2018-06-28T08:26:49.487Z,25.34
2018-06-28T08:27:49.405Z,25.51
2018-06-28T08:28:49.366Z,25.59
2018-06-28T08:29:49.331Z,25.67
2018-06-28T08:30:49.291Z,25.71
2018-06-28T08:31:49.254Z,25.76
2018-06-28T08:32:49.218Z,25.89
2018-06-28T08:33:49.181Z,25.93
2018-06-28T08:34:49.143Z,26.01
2018-06-28T08:35:49.124Z,26.06
2018-06-28T08:36:49.066Z,26.15
2018-06-28T08:37:49.034Z,26.22
2018-06-28T08:38:48.992Z,26.26
2018-06-28T08:39:48.961Z,26.36
2018-06-28T08:40:48.921Z,26.48
2018-06-28T08:41:48.881Z,26.59
2018-06-28T08:42:48.848Z,26.59
2018-06-28T08:43:48.807Z,26.70
2018-06-28T08:44:48.771Z,26.74
2018-06-28T08:45:48.733Z,26.85
2018-06-28T08:46:48.698Z,26.91
2018-06-28T08:47:48.661Z,26.96
2018-06-28T08:48:48.622Z,27.05
2018-06-28T08:49:48.586Z,27.13
2018-06-28T08:50:48.550Z,27.16
2018-06-28T08:51:48.512Z,27.34
2018-06-28T08:52:48.476Z,27.35
2018-06-28T08:53:48.439Z,27.40
2018-06-28T08:54:48.405Z,27.43
2018-06-28T08:55:48.367Z,27.52
2018-06-28T08:56:48.332Z,27.58
2018-06-28T08:57:48.318Z,27.61
2018-06-28T08:58:48.257Z,27.76
2018-06-28T08:59:48.221Z,27.75
2018-06-28T09:00:48.184Z,27.88
2018-06-28T09:01:48.148Z,27.93
2018-06-28T09:02:48.112Z,27.88
2018-06-28T09:03:48.074Z,28.01
2018-06-28T09:04:48.039Z,28.12
2018-06-28T09:05:48.042Z,28.15
2018-06-28T09:06:47.966Z,28.23
2018-06-28T09:07:47.936Z,28.25
2018-06-28T09:08:47.894Z,28.20
2018-06-28T09:09:47.857Z,28.28
2018-06-28T09:10:47.824Z,28.35
2018-06-28T09:11:47.785Z,28.41
2018-06-28T09:12:47.751Z,28.45
2018-06-28T09:13:47.718Z,28.56
2018-06-28T09:14:47.680Z,28.55
2018-06-28T09:15:47.645Z,28.62
2018-06-28T09:16:47.610Z,28.70
2018-06-28T09:17:47.574Z,28.71
2018-06-28T09:18:47.539Z,28.59
2018-06-28T09:19:47.505Z,28.74
2018-06-28T09:20:47.467Z,28.72
2018-06-28T09:21:47.427Z,28.83
2018-06-28T09:22:47.459Z,28.93
2018-06-28T09:23:47.362Z,29.03
2018-06-28T09:24:47.324Z,28.94
2018-06-28T09:25:47.289Z,28.97
2018-06-28T09:26:47.251Z,29.06
2018-06-28T09:27:47.218Z,29.10
2018-06-28T09:28:47.180Z,29.07
2018-06-28T09:29:47.150Z,29.07
2018-06-28T09:30:47.109Z,29.10
2018-06-28T09:31:47.074Z,29.06
2018-06-28T09:32:47.039Z,29.15
2018-06-28T09:33:47.001Z,29.13
2018-06-28T09:34:46.977Z,29.07
2018-06-28T09:35:46.965Z,29.09
2018-06-28T09:36:46.897Z,29.13
2018-06-28T09:37:46.863Z,29.16
2018-06-28T09:38:46.825Z,29.30
2018-06-28T09:39:46.792Z,29.34
2018-06-28T09:40:46.755Z,29.39
2018-06-28T09:41:46.722Z,29.37
2018-06-28T09:42:46.687Z,29.49
2018-06-28T09:43:46.654Z,29.58
2018-06-28T09:44:46.617Z,29.49
2018-06-28T09:45:46.579Z,29.61
2018-06-28T09:46:46.546Z,29.69
2018-06-28T09:47:46.511Z,29.76
2018-06-28T09:48:46.529Z,29.84
2018-06-28T09:49:46.440Z,29.84
2018-06-28T09:50:46.406Z,29.92
2018-06-28T09:51:46.370Z,29.95
2018-06-28T09:52:46.334Z,29.95
2018-06-28T09:53:46.304Z,29.99
2018-06-28T09:54:46.276Z,29.98
2018-06-28T09:55:46.230Z,30.01
2018-06-28T09:56:46.195Z,29.95
2018-06-28T09:57:46.162Z,30.05
2018-06-28T09:58:46.127Z,30.08
2018-06-28T09:59:46.090Z,30.21
2018-06-28T10:00:46.060Z,30.29
2018-06-28T10:01:46.023Z,30.29
2018-06-28T10:02:45.988Z,30.11
2018-06-28T10:03:45.951Z,30.35
2018-06-28T10:04:45.915Z,30.27
2018-06-28T10:05:45.880Z,30.39
2018-06-28T10:06:45.936Z,30.43
2018-06-28T10:07:45.811Z,30.36
2018-06-28T10:08:45.777Z,30.51
2018-06-28T10:09:45.740Z,30.54
2018-06-28T10:10:45.706Z,30.51
2018-06-28T10:11:45.676Z,30.58
2018-06-28T10:12:45.658Z,30.62
2018-06-28T10:13:45.613Z,30.62
2018-06-28T10:14:45.631Z,30.61
2018-06-28T10:15:45.553Z,30.59
2018-06-28T10:16:45.501Z,30.63
2018-06-28T10:17:45.482Z,30.58
2018-06-28T10:18:45.430Z,30.55
2018-06-28T10:19:45.397Z,30.54
2018-06-28T10:20:45.361Z,30.51
2018-06-28T10:21:45.347Z,30.52
2018-06-28T10:22:45.294Z,30.55
2018-06-28T10:23:45.259Z,30.52
2018-06-28T10:24:45.226Z,30.52
2018-06-28T10:25:45.192Z,30.61
2018-06-28T10:26:45.157Z,30.62
2018-06-28T10:27:45.122Z,30.70
2018-06-28T10:28:45.090Z,30.71
2018-06-28T10:29:45.078Z,30.81
2018-06-28T10:30:45.029Z,30.88
2018-06-28T10:31:44.995Z,30.93
2018-06-28T10:32:44.981Z,31.00
2018-06-28T10:33:44.915Z,31.02
2018-06-28T10:34:44.882Z,31.05
2018-06-28T10:35:44.847Z,31.07
2018-06-28T10:36:44.830Z,31.10
2018-06-28T10:37:44.780Z,31.17
2018-06-28T10:38:44.775Z,31.29
2018-06-28T10:39:44.713Z,31.32
2018-06-28T10:40:44.678Z,31.32
2018-06-28T10:41:44.643Z,31.54
2018-06-28T10:42:44.612Z,31.47
2018-06-28T10:43:44.578Z,31.48
2018-06-28T10:44:44.541Z,31.42
2018-06-28T10:45:44.507Z,31.50
2018-06-28T10:46:44.473Z,31.54
2018-06-28T10:47:44.439Z,31.67
2018-06-28T10:48:44.406Z,31.69
2018-06-28T10:49:44.375Z,31.59
2018-06-28T10:50:44.340Z,31.55
2018-06-28T10:51:44.304Z,31.74
2018-06-28T10:52:44.381Z,31.70
2018-06-28T10:53:44.293Z,31.77
2018-06-28T10:54:44.217Z,31.85
2018-06-28T10:55:44.168Z,31.92
2018-06-28T10:56:44.218Z,31.92
2018-06-28T10:57:44.101Z,31.90
2018-06-28T10:58:44.071Z,32.00
2018-06-28T10:59:44.036Z,31.98
2018-06-28T11:00:44.063Z,32.07
2018-06-28T11:01:44.019Z,32.11
2018-06-28T11:02:44.006Z,32.17
2018-06-28T11:03:43.903Z,32.23
2018-06-28T11:04:43.867Z,32.11
2018-06-28T11:05:43.834Z,32.08
2018-06-28T11:06:43.821Z,32.15
2018-06-28T11:07:43.768Z,31.92
2018-06-28T11:08:43.736Z,31.92
2018-06-28T11:09:43.699Z,32.01
2018-06-28T11:10:43.666Z,32.15
2018-06-28T11:11:43.635Z,32.19
2018-06-28T11:12:43.603Z,32.23
2018-06-28T11:13:43.570Z,32.39
2018-06-28T11:14:43.533Z,32.41
2018-06-28T11:15:43.584Z,32.37
2018-06-28T11:16:43.468Z,32.39
2018-06-28T11:17:43.440Z,32.48
2018-06-28T11:18:43.402Z,32.45
2018-06-28T11:19:43.368Z,32.49
2018-06-28T11:20:43.336Z,32.53
2018-06-28T11:21:43.302Z,32.57
2018-06-28T11:22:43.268Z,32.68
2018-06-28T11:23:43.244Z,32.73
2018-06-28T11:24:43.205Z,32.72
2018-06-28T11:25:43.172Z,32.78
2018-06-28T11:26:43.169Z,32.82
2018-06-28T11:27:43.103Z,32.94
2018-06-28T11:28:43.070Z,32.88
2018-06-28T11:29:43.036Z,32.88
2018-06-28T11:30:43.006Z,32.94
2018-06-28T11:31:42.971Z,33.00
2018-06-28T11:32:42.938Z,32.94
2018-06-28T11:33:42.906Z,32.94
2018-06-28T11:34:42.872Z,33.01
2018-06-28T11:35:42.842Z,33.03
2018-06-28T11:36:42.810Z,33.04
2018-06-28T11:37:42.774Z,33.19
2018-06-28T11:38:42.742Z,33.19
2018-06-28T11:39:42.710Z,33.20
2018-06-28T11:40:42.676Z,33.29
2018-06-28T11:41:42.642Z,33.28
2018-06-28T11:42:42.610Z,33.36
2018-06-28T11:43:42.577Z,33.42
2018-06-28T11:44:42.547Z,33.20
2018-06-28T11:45:42.511Z,33.04
2018-06-28T11:46:42.479Z,33.09
2018-06-28T11:47:42.448Z,33.15
2018-06-28T11:48:42.415Z,33.08
2018-06-28T11:49:42.382Z,33.03
2018-06-28T11:50:42.346Z,32.85
2018-06-28T11:51:42.323Z,32.64
2018-06-28T11:52:42.288Z,32.37
2018-06-28T11:53:42.248Z,32.16
2018-06-28T11:54:42.216Z,32.24
2018-06-28T11:55:42.187Z,32.20
2018-06-28T11:56:42.193Z,32.23
2018-06-28T11:57:42.116Z,32.38
2018-06-28T11:58:42.086Z,32.49
2018-06-28T11:59:42.053Z,32.71
2018-06-28T12:00:42.018Z,32.75
2018-06-28T12:01:41.987Z,32.94
2018-06-28T12:02:41.953Z,33.04
2018-06-28T12:03:41.920Z,33.17
2018-06-28T12:04:41.889Z,33.40
2018-06-28T12:05:41.935Z,33.58
2018-06-28T12:06:41.829Z,33.81
2018-06-28T12:07:41.789Z,34.00
2018-06-28T12:08:41.755Z,34.28
2018-06-28T12:09:41.723Z,34.48
2018-06-28T12:10:41.692Z,34.29
2018-06-28T12:11:41.659Z,34.46
2018-06-28T12:12:41.625Z,34.50
2018-06-28T12:13:41.592Z,34.76
2018-06-28T12:14:41.562Z,34.76
2018-06-28T12:15:41.532Z,35.04
2018-06-28T12:16:41.499Z,35.38
2018-06-28T12:17:41.466Z,35.64
2018-06-28T12:18:41.435Z,35.97
2018-06-28T12:19:41.402Z,36.22
2018-06-28T12:20:41.371Z,36.47
2018-06-28T12:21:41.341Z,36.05
2018-06-28T12:22:41.311Z,35.68
2018-06-28T12:23:41.277Z,35.30
2018-06-28T12:24:41.243Z,34.70
2018-06-28T12:25:41.210Z,34.40
2018-06-28T12:26:41.179Z,34.91
2018-06-28T12:27:41.150Z,35.34
2018-06-28T12:28:41.119Z,35.72
2018-06-28T12:29:41.085Z,36.09
2018-06-28T12:30:41.053Z,36.54
2018-06-28T12:31:41.031Z,36.60
2018-06-28T12:32:40.993Z,36.99
2018-06-28T12:33:40.959Z,36.76
2018-06-28T12:34:40.929Z,37.18
2018-06-28T12:35:40.898Z,37.67
2018-06-28T12:36:40.869Z,38.01
2018-06-28T12:37:40.836Z,38.57
2018-06-28T12:38:40.804Z,38.60
2018-06-28T12:39:40.774Z,38.98
2018-06-28T12:40:40.743Z,39.39
2018-06-28T12:41:40.714Z,39.60
2018-06-28T12:42:40.686Z,39.78
2018-06-28T12:43:40.658Z,40.24
2018-06-28T12:44:40.624Z,40.46
2018-06-28T12:45:40.596Z,40.54
2018-06-28T12:46:40.564Z,40.74
2018-06-28T12:47:40.538Z,41.00
2018-06-28T12:48:40.505Z,41.08
2018-06-28T12:49:40.474Z,41.24
2018-06-28T12:50:40.449Z,41.22
2018-06-28T12:51:40.418Z,41.30